sensor_id;sensor_type;location;lat;lon;timestamp;temperature;humidity
610;DHT22;292;48.800;9.216;2022-12-07T00:01:44;6.10;83.20
610;DHT22;292;48.800;9.216;2022-12-07T00:04:14;6.20;83.20
610;DHT22;292;48.800;9.216;2022-12-07T00:06:43;6.20;83.20
610;DHT22;292;48.800;9.216;2022-12-07T00:09:12;6.10;83.20
610;DHT22;292;48.800;9.216;2022-12-07T00:11:39;6.20;83.40
610;DHT22;292;48.800;9.216;2022-12-07T00:14:11;6.20;83.20
610;DHT22;292;48.800;9.216;2022-12-07T00:16:40;6.20;83.20
610;DHT22;292;48.800;9.216;2022-12-07T00:19:08;6.20;83.20
610;DHT22;292;48.800;9.216;2022-12-07T00:21:36;6.30;83.10
610;DHT22;292;48.800;9.216;2022-12-07T00:24:04;6.30;83.10
610;DHT22;292;48.800;9.216;2022-12-07T00:26:33;6.30;82.90
610;DHT22;292;48.800;9.216;2022-12-07T00:29:02;6.30;82.90
610;DHT22;292;48.800;9.216;2022-12-07T00:31:31;6.30;82.90
610;DHT22;292;48.800;9.216;2022-12-07T00:34:02;6.40;82.90
610;DHT22;292;48.800;9.216;2022-12-07T00:36:29;6.40;82.60
610;DHT22;292;48.800;9.216;2022-12-07T00:38:58;6.40;82.50
610;DHT22;292;48.800;9.216;2022-12-07T00:41:26;6.50;82.60
610;DHT22;292;48.800;9.216;2022-12-07T00:43:54;6.50;82.50
610;DHT22;292;48.800;9.216;2022-12-07T00:46:22;6.50;82.00
610;DHT22;292;48.800;9.216;2022-12-07T00:48:50;6.40;82.20
610;DHT22;292;48.800;9.216;2022-12-07T00:51:21;6.40;82.20
610;DHT22;292;48.800;9.216;2022-12-07T00:53:49;6.40;82.00
610;DHT22;292;48.800;9.216;2022-12-07T00:56:18;6.40;82.00
610;DHT22;292;48.800;9.216;2022-12-07T00:58:49;6.40;82.00
610;DHT22;292;48.800;9.216;2022-12-07T01:01:17;6.40;82.00
610;DHT22;292;48.800;9.216;2022-12-07T01:03:44;6.40;81.70
610;DHT22;292;48.800;9.216;2022-12-07T01:06:14;6.40;81.60
610;DHT22;292;48.800;9.216;2022-12-07T01:08:43;6.40;81.60
610;DHT22;292;48.800;9.216;2022-12-07T01:11:13;6.40;81.40
610;DHT22;292;48.800;9.216;2022-12-07T01:13:41;6.40;81.40
610;DHT22;292;48.800;9.216;2022-12-07T01:16:11;6.50;81.30
610;DHT22;292;48.800;9.216;2022-12-07T01:18:38;6.50;81.30
610;DHT22;292;48.800;9.216;2022-12-07T01:21:07;6.50;80.90
610;DHT22;292;48.800;9.216;2022-12-07T01:23:35;6.50;80.90
610;DHT22;292;48.800;9.216;2022-12-07T01:26:05;6.50;80.70
610;DHT22;292;48.800;9.216;2022-12-07T01:28:33;6.50;80.70
610;DHT22;292;48.800;9.216;2022-12-07T01:31:02;6.50;80.60
610;DHT22;292;48.800;9.216;2022-12-07T01:33:32;6.50;80.40
610;DHT22;292;48.800;9.216;2022-12-07T01:36:03;6.50;80.30
610;DHT22;292;48.800;9.216;2022-12-07T01:38:31;6.50;80.30
610;DHT22;292;48.800;9.216;2022-12-07T01:40:59;6.50;80.30
610;DHT22;292;48.800;9.216;2022-12-07T01:43:30;6.50;80.10
610;DHT22;292;48.800;9.216;2022-12-07T01:45:58;6.50;80.10
610;DHT22;292;48.800;9.216;2022-12-07T01:48:28;6.60;80.10
610;DHT22;292;48.800;9.216;2022-12-07T01:51:00;6.60;80.00
610;DHT22;292;48.800;9.216;2022-12-07T01:53:30;6.60;79.90
610;DHT22;292;48.800;9.216;2022-12-07T01:55:59;6.70;79.70
610;DHT22;292;48.800;9.216;2022-12-07T01:58:28;6.70;79.70
610;DHT22;292;48.800;9.216;2022-12-07T02:00:55;6.60;79.70
610;DHT22;292;48.800;9.216;2022-12-07T02:03:25;6.70;79.60
610;DHT22;292;48.800;9.216;2022-12-07T02:05:54;6.70;79.30
610;DHT22;292;48.800;9.216;2022-12-07T02:08:22;6.70;79.30
610;DHT22;292;48.800;9.216;2022-12-07T02:10:49;6.70;79.30
610;DHT22;292;48.800;9.216;2022-12-07T02:13:18;6.70;79.00
610;DHT22;292;48.800;9.216;2022-12-07T02:16:08;6.70;78.80
610;DHT22;292;48.800;9.216;2022-12-07T02:18:48;6.70;78.80
610;DHT22;292;48.800;9.216;2022-12-07T02:21:23;6.70;78.80
610;DHT22;292;48.800;9.216;2022-12-07T02:24:15;6.70;78.70
610;DHT22;292;48.800;9.216;2022-12-07T02:29:36;6.80;78.60
610;DHT22;292;48.800;9.216;2022-12-07T02:32:11;6.80;78.60
610;DHT22;292;48.800;9.216;2022-12-07T02:34:47;6.80;78.60
610;DHT22;292;48.800;9.216;2022-12-07T02:37:21;6.70;78.40
610;DHT22;292;48.800;9.216;2022-12-07T02:39:55;6.70;78.60
610;DHT22;292;48.800;9.216;2022-12-07T02:42:27;6.70;78.40
610;DHT22;292;48.800;9.216;2022-12-07T02:44:59;6.70;78.60
610;DHT22;292;48.800;9.216;2022-12-07T02:47:29;6.70;78.60
610;DHT22;292;48.800;9.216;2022-12-07T02:49:58;6.70;78.60
610;DHT22;292;48.800;9.216;2022-12-07T02:52:25;6.70;78.60
610;DHT22;292;48.800;9.216;2022-12-07T02:54:52;6.70;78.60
610;DHT22;292;48.800;9.216;2022-12-07T02:57:40;6.70;78.70
610;DHT22;292;48.800;9.216;2022-12-07T03:00:12;6.70;78.70
610;DHT22;292;48.800;9.216;2022-12-07T03:02:50;6.70;78.60
610;DHT22;292;48.800;9.216;2022-12-07T03:05:32;6.70;78.70
610;DHT22;292;48.800;9.216;2022-12-07T03:08:04;6.70;78.70
610;DHT22;292;48.800;9.216;2022-12-07T03:10:39;6.70;78.60
610;DHT22;292;48.800;9.216;2022-12-07T03:13:11;6.60;78.70
610;DHT22;292;48.800;9.216;2022-12-07T03:15:45;6.60;78.80
610;DHT22;292;48.800;9.216;2022-12-07T03:18:15;6.60;78.80
610;DHT22;292;48.800;9.216;2022-12-07T03:20:44;6.60;78.80
610;DHT22;292;48.800;9.216;2022-12-07T03:23:15;6.60;78.80
610;DHT22;292;48.800;9.216;2022-12-07T03:25:45;6.60;78.80
610;DHT22;292;48.800;9.216;2022-12-07T03:28:15;6.60;78.70
610;DHT22;292;48.800;9.216;2022-12-07T03:30:49;6.60;78.80
610;DHT22;292;48.800;9.216;2022-12-07T03:33:22;6.60;78.80
610;DHT22;292;48.800;9.216;2022-12-07T03:35:58;6.60;79.00
610;DHT22;292;48.800;9.216;2022-12-07T03:38:31;6.60;78.80
610;DHT22;292;48.800;9.216;2022-12-07T03:41:01;6.60;78.70
610;DHT22;292;48.800;9.216;2022-12-07T03:43:31;6.60;78.80
610;DHT22;292;48.800;9.216;2022-12-07T03:46:09;6.60;78.70
610;DHT22;292;48.800;9.216;2022-12-07T03:48:44;6.60;78.60
610;DHT22;292;48.800;9.216;2022-12-07T03:51:17;6.60;78.40
610;DHT22;292;48.800;9.216;2022-12-07T03:53:50;6.60;78.40
610;DHT22;292;48.800;9.216;2022-12-07T03:56:18;6.60;78.30
610;DHT22;292;48.800;9.216;2022-12-07T03:58:46;6.60;78.30
610;DHT22;292;48.800;9.216;2022-12-07T04:01:17;6.60;78.30
610;DHT22;292;48.800;9.216;2022-12-07T04:03:45;6.60;78.30
610;DHT22;292;48.800;9.216;2022-12-07T04:06:12;6.70;78.10
610;DHT22;292;48.800;9.216;2022-12-07T04:08:39;6.70;78.10
610;DHT22;292;48.800;9.216;2022-12-07T04:11:07;6.70;78.00
610;DHT22;292;48.800;9.216;2022-12-07T04:13:34;6.70;78.00
610;DHT22;292;48.800;9.216;2022-12-07T04:16:22;6.70;77.80
610;DHT22;292;48.800;9.216;2022-12-07T04:18:49;6.70;77.70
610;DHT22;292;48.800;9.216;2022-12-07T04:21:16;6.70;77.70
610;DHT22;292;48.800;9.216;2022-12-07T04:23:44;6.80;77.50
610;DHT22;292;48.800;9.216;2022-12-07T04:26:11;6.80;77.50
610;DHT22;292;48.800;9.216;2022-12-07T04:28:38;6.80;77.40
610;DHT22;292;48.800;9.216;2022-12-07T04:31:05;6.70;77.40
610;DHT22;292;48.800;9.216;2022-12-07T04:33:33;6.80;77.30
610;DHT22;292;48.800;9.216;2022-12-07T04:36:02;6.70;77.10
610;DHT22;292;48.800;9.216;2022-12-07T04:38:29;6.70;76.80
610;DHT22;292;48.800;9.216;2022-12-07T04:40:56;6.70;76.80
610;DHT22;292;48.800;9.216;2022-12-07T04:43:23;6.60;76.70
610;DHT22;292;48.800;9.216;2022-12-07T04:45:50;6.60;76.50
610;DHT22;292;48.800;9.216;2022-12-07T04:48:17;6.60;76.40
610;DHT22;292;48.800;9.216;2022-12-07T04:50:48;6.50;76.10
610;DHT22;292;48.800;9.216;2022-12-07T04:53:15;6.50;75.80
610;DHT22;292;48.800;9.216;2022-12-07T04:55:44;6.40;75.50
610;DHT22;292;48.800;9.216;2022-12-07T04:58:11;6.40;75.20
610;DHT22;292;48.800;9.216;2022-12-07T05:00:39;6.30;75.20
610;DHT22;292;48.800;9.216;2022-12-07T05:03:06;6.30;75.40
610;DHT22;292;48.800;9.216;2022-12-07T05:05:33;6.30;75.40
610;DHT22;292;48.800;9.216;2022-12-07T05:08:02;6.30;75.50
610;DHT22;292;48.800;9.216;2022-12-07T05:10:29;6.30;75.70
610;DHT22;292;48.800;9.216;2022-12-07T05:12:56;6.30;75.50
610;DHT22;292;48.800;9.216;2022-12-07T05:15:23;6.30;75.20
610;DHT22;292;48.800;9.216;2022-12-07T05:17:50;6.30;74.80
610;DHT22;292;48.800;9.216;2022-12-07T05:20:18;6.30;74.70
610;DHT22;292;48.800;9.216;2022-12-07T05:22:45;6.40;74.50
610;DHT22;292;48.800;9.216;2022-12-07T05:25:14;6.40;74.50
610;DHT22;292;48.800;9.216;2022-12-07T05:27:41;6.40;74.50
610;DHT22;292;48.800;9.216;2022-12-07T05:30:09;6.40;74.50
610;DHT22;292;48.800;9.216;2022-12-07T05:32:36;6.40;74.40
610;DHT22;292;48.800;9.216;2022-12-07T05:35:04;6.40;74.50
610;DHT22;292;48.800;9.216;2022-12-07T05:37:32;6.40;74.70
610;DHT22;292;48.800;9.216;2022-12-07T05:39:59;6.40;74.80
610;DHT22;292;48.800;9.216;2022-12-07T05:42:27;6.40;74.80
610;DHT22;292;48.800;9.216;2022-12-07T05:44:53;6.40;74.80
610;DHT22;292;48.800;9.216;2022-12-07T05:47:21;6.30;75.00
610;DHT22;292;48.800;9.216;2022-12-07T05:49:48;6.30;75.10
610;DHT22;292;48.800;9.216;2022-12-07T05:52:15;6.30;75.10
610;DHT22;292;48.800;9.216;2022-12-07T05:54:42;6.30;75.10
610;DHT22;292;48.800;9.216;2022-12-07T05:57:09;6.30;75.20
610;DHT22;292;48.800;9.216;2022-12-07T05:59:38;6.30;75.40
610;DHT22;292;48.800;9.216;2022-12-07T06:02:06;6.30;75.40
610;DHT22;292;48.800;9.216;2022-12-07T06:04:36;6.30;75.40
610;DHT22;292;48.800;9.216;2022-12-07T06:07:03;6.30;75.50
610;DHT22;292;48.800;9.216;2022-12-07T06:09:31;6.30;75.50
610;DHT22;292;48.800;9.216;2022-12-07T06:11:59;6.30;75.50
610;DHT22;292;48.800;9.216;2022-12-07T06:14:45;6.30;75.50
610;DHT22;292;48.800;9.216;2022-12-07T06:17:12;6.20;75.70
610;DHT22;292;48.800;9.216;2022-12-07T06:19:39;6.30;75.70
610;DHT22;292;48.800;9.216;2022-12-07T06:22:07;6.30;75.70
610;DHT22;292;48.800;9.216;2022-12-07T06:24:36;6.30;75.70
610;DHT22;292;48.800;9.216;2022-12-07T06:27:03;6.20;76.00
610;DHT22;292;48.800;9.216;2022-12-07T06:29:30;6.20;76.20
610;DHT22;292;48.800;9.216;2022-12-07T06:31:58;6.20;76.20
610;DHT22;292;48.800;9.216;2022-12-07T06:34:26;6.20;76.20
610;DHT22;292;48.800;9.216;2022-12-07T06:36:53;6.30;76.20
610;DHT22;292;48.800;9.216;2022-12-07T06:39:24;6.30;76.20
610;DHT22;292;48.800;9.216;2022-12-07T06:41:51;6.30;76.20
610;DHT22;292;48.800;9.216;2022-12-07T06:44:19;6.30;76.00
610;DHT22;292;48.800;9.216;2022-12-07T06:46:47;6.20;75.70
610;DHT22;292;48.800;9.216;2022-12-07T06:49:16;6.20;76.00
610;DHT22;292;48.800;9.216;2022-12-07T06:51:43;6.20;76.00
610;DHT22;292;48.800;9.216;2022-12-07T06:54:11;6.20;75.70
610;DHT22;292;48.800;9.216;2022-12-07T06:56:39;6.20;76.00
610;DHT22;292;48.800;9.216;2022-12-07T06:59:06;6.20;76.00
610;DHT22;292;48.800;9.216;2022-12-07T07:01:35;6.20;76.00
610;DHT22;292;48.800;9.216;2022-12-07T07:04:02;6.20;76.00
610;DHT22;292;48.800;9.216;2022-12-07T07:06:30;6.30;75.70
610;DHT22;292;48.800;9.216;2022-12-07T07:08:58;6.30;75.70
610;DHT22;292;48.800;9.216;2022-12-07T07:11:25;6.30;75.50
610;DHT22;292;48.800;9.216;2022-12-07T07:13:52;6.30;75.50
610;DHT22;292;48.800;9.216;2022-12-07T07:16:22;6.30;75.20
610;DHT22;292;48.800;9.216;2022-12-07T07:18:51;6.30;75.00
610;DHT22;292;48.800;9.216;2022-12-07T07:21:18;6.30;74.80
610;DHT22;292;48.800;9.216;2022-12-07T07:23:46;6.30;74.80
610;DHT22;292;48.800;9.216;2022-12-07T07:26:14;6.20;74.80
610;DHT22;292;48.800;9.216;2022-12-07T07:28:41;6.20;75.00
610;DHT22;292;48.800;9.216;2022-12-07T07:31:08;6.20;75.00
610;DHT22;292;48.800;9.216;2022-12-07T07:33:34;6.20;74.70
610;DHT22;292;48.800;9.216;2022-12-07T07:36:01;6.20;74.50
610;DHT22;292;48.800;9.216;2022-12-07T07:38:28;6.20;74.10
610;DHT22;292;48.800;9.216;2022-12-07T07:40:57;6.20;73.90
610;DHT22;292;48.800;9.216;2022-12-07T07:43:24;6.30;73.50
610;DHT22;292;48.800;9.216;2022-12-07T07:45:51;6.20;72.80
610;DHT22;292;48.800;9.216;2022-12-07T07:48:18;6.20;72.20
610;DHT22;292;48.800;9.216;2022-12-07T07:50:45;6.10;71.90
610;DHT22;292;48.800;9.216;2022-12-07T07:53:13;6.10;71.80
610;DHT22;292;48.800;9.216;2022-12-07T07:55:39;6.10;71.60
610;DHT22;292;48.800;9.216;2022-12-07T07:58:08;6.10;71.30
610;DHT22;292;48.800;9.216;2022-12-07T08:00:35;6.10;71.30
610;DHT22;292;48.800;9.216;2022-12-07T08:03:02;6.10;71.30
610;DHT22;292;48.800;9.216;2022-12-07T08:05:29;6.20;70.80
610;DHT22;292;48.800;9.216;2022-12-07T08:07:57;6.20;70.60
610;DHT22;292;48.800;9.216;2022-12-07T08:10:24;6.20;70.00
610;DHT22;292;48.800;9.216;2022-12-07T08:12:51;6.20;69.90
610;DHT22;292;48.800;9.216;2022-12-07T08:15:38;6.20;69.90
610;DHT22;292;48.800;9.216;2022-12-07T08:18:05;6.20;69.80
610;DHT22;292;48.800;9.216;2022-12-07T08:20:34;6.20;69.60
610;DHT22;292;48.800;9.216;2022-12-07T08:23:01;6.30;69.50
610;DHT22;292;48.800;9.216;2022-12-07T08:25:29;6.30;69.50
610;DHT22;292;48.800;9.216;2022-12-07T08:27:56;6.30;69.30
610;DHT22;292;48.800;9.216;2022-12-07T08:30:23;6.40;69.30
610;DHT22;292;48.800;9.216;2022-12-07T08:32:52;6.40;69.20
610;DHT22;292;48.800;9.216;2022-12-07T08:35:19;6.40;68.70
610;DHT22;292;48.800;9.216;2022-12-07T08:37:46;6.50;68.60
610;DHT22;292;48.800;9.216;2022-12-07T08:40:14;6.50;68.50
610;DHT22;292;48.800;9.216;2022-12-07T08:42:41;6.50;68.30
610;DHT22;292;48.800;9.216;2022-12-07T08:45:11;6.60;68.00
610;DHT22;292;48.800;9.216;2022-12-07T08:47:42;6.60;67.70
610;DHT22;292;48.800;9.216;2022-12-07T08:50:12;6.60;67.60
610;DHT22;292;48.800;9.216;2022-12-07T08:52:40;6.60;67.60
610;DHT22;292;48.800;9.216;2022-12-07T08:55:09;6.70;67.30
610;DHT22;292;48.800;9.216;2022-12-07T08:57:38;6.70;67.20
610;DHT22;292;48.800;9.216;2022-12-07T09:00:07;6.70;67.20
610;DHT22;292;48.800;9.216;2022-12-07T09:02:34;6.70;67.00
610;DHT22;292;48.800;9.216;2022-12-07T09:05:01;6.70;67.00
610;DHT22;292;48.800;9.216;2022-12-07T09:07:32;6.80;67.00
610;DHT22;292;48.800;9.216;2022-12-07T09:10:00;6.80;66.90
610;DHT22;292;48.800;9.216;2022-12-07T09:12:27;6.80;66.90
610;DHT22;292;48.800;9.216;2022-12-07T09:14:54;6.90;66.90
610;DHT22;292;48.800;9.216;2022-12-07T09:17:21;6.90;66.70
610;DHT22;292;48.800;9.216;2022-12-07T09:19:48;6.90;66.70
610;DHT22;292;48.800;9.216;2022-12-07T09:22:15;6.90;66.60
610;DHT22;292;48.800;9.216;2022-12-07T09:24:43;6.90;66.60
610;DHT22;292;48.800;9.216;2022-12-07T09:27:11;7.00;66.40
610;DHT22;292;48.800;9.216;2022-12-07T09:29:38;7.00;66.60
610;DHT22;292;48.800;9.216;2022-12-07T09:32:05;7.00;66.40
610;DHT22;292;48.800;9.216;2022-12-07T09:34:33;7.00;66.30
610;DHT22;292;48.800;9.216;2022-12-07T09:37:00;7.10;66.40
610;DHT22;292;48.800;9.216;2022-12-07T09:39:28;7.10;66.40
610;DHT22;292;48.800;9.216;2022-12-07T09:41:57;7.20;66.40
610;DHT22;292;48.800;9.216;2022-12-07T09:44:26;7.20;66.30
610;DHT22;292;48.800;9.216;2022-12-07T09:46:54;7.30;66.30
610;DHT22;292;48.800;9.216;2022-12-07T09:49:24;7.30;66.00
610;DHT22;292;48.800;9.216;2022-12-07T09:52:01;7.30;65.90
610;DHT22;292;48.800;9.216;2022-12-07T09:54:29;7.40;65.90
610;DHT22;292;48.800;9.216;2022-12-07T09:56:58;7.40;65.90
610;DHT22;292;48.800;9.216;2022-12-07T09:59:26;7.50;65.70
610;DHT22;292;48.800;9.216;2022-12-07T10:01:53;7.50;65.60
610;DHT22;292;48.800;9.216;2022-12-07T10:04:22;7.50;65.40
610;DHT22;292;48.800;9.216;2022-12-07T10:06:51;7.50;65.40
610;DHT22;292;48.800;9.216;2022-12-07T10:09:21;7.50;65.40
610;DHT22;292;48.800;9.216;2022-12-07T10:12:05;7.50;65.40
610;DHT22;292;48.800;9.216;2022-12-07T10:14:36;7.50;65.40
610;DHT22;292;48.800;9.216;2022-12-07T10:17:29;7.50;65.40
610;DHT22;292;48.800;9.216;2022-12-07T10:20:19;7.50;65.60
610;DHT22;292;48.800;9.216;2022-12-07T10:22:57;7.50;65.40
610;DHT22;292;48.800;9.216;2022-12-07T10:25:28;7.50;65.30
610;DHT22;292;48.800;9.216;2022-12-07T10:28:16;7.40;65.40
610;DHT22;292;48.800;9.216;2022-12-07T10:30:52;7.40;65.60
610;DHT22;292;48.800;9.216;2022-12-07T10:33:29;7.40;65.60
610;DHT22;292;48.800;9.216;2022-12-07T10:35:58;7.50;65.60
610;DHT22;292;48.800;9.216;2022-12-07T10:38:27;7.50;65.40
610;DHT22;292;48.800;9.216;2022-12-07T10:41:04;7.50;65.70
610;DHT22;292;48.800;9.216;2022-12-07T10:43:33;7.50;65.70
610;DHT22;292;48.800;9.216;2022-12-07T10:49:09;7.50;65.70
610;DHT22;292;48.800;9.216;2022-12-07T10:51:50;7.50;65.90
610;DHT22;292;48.800;9.216;2022-12-07T10:54:28;7.60;65.70
610;DHT22;292;48.800;9.216;2022-12-07T10:57:13;7.60;65.70
610;DHT22;292;48.800;9.216;2022-12-07T11:00:03;7.50;65.90
610;DHT22;292;48.800;9.216;2022-12-07T11:02:55;7.50;66.00
610;DHT22;292;48.800;9.216;2022-12-07T11:05:29;7.50;66.00
610;DHT22;292;48.800;9.216;2022-12-07T11:08:04;7.50;66.20
610;DHT22;292;48.800;9.216;2022-12-07T11:10:43;7.40;66.60
610;DHT22;292;48.800;9.216;2022-12-07T11:13:22;7.40;66.70
610;DHT22;292;48.800;9.216;2022-12-07T11:18:59;7.50;67.20
610;DHT22;292;48.800;9.216;2022-12-07T11:21:32;7.50;67.20
610;DHT22;292;48.800;9.216;2022-12-07T11:24:10;7.50;67.50
610;DHT22;292;48.800;9.216;2022-12-07T11:26:52;7.50;67.60
610;DHT22;292;48.800;9.216;2022-12-07T11:29:46;7.50;67.90
610;DHT22;292;48.800;9.216;2022-12-07T11:32:21;7.50;68.00
610;DHT22;292;48.800;9.216;2022-12-07T11:35:00;7.50;68.30
610;DHT22;292;48.800;9.216;2022-12-07T11:37:34;7.50;68.50
610;DHT22;292;48.800;9.216;2022-12-07T11:40:08;7.60;68.60
610;DHT22;292;48.800;9.216;2022-12-07T11:42:44;7.50;68.90
610;DHT22;292;48.800;9.216;2022-12-07T11:45:16;7.50;69.00
610;DHT22;292;48.800;9.216;2022-12-07T11:47:49;7.50;69.30
610;DHT22;292;48.800;9.216;2022-12-07T11:50:26;7.50;69.50
610;DHT22;292;48.800;9.216;2022-12-07T11:52:58;7.50;69.60
610;DHT22;292;48.800;9.216;2022-12-07T11:55:32;7.40;69.90
610;DHT22;292;48.800;9.216;2022-12-07T11:58:17;7.40;70.00
610;DHT22;292;48.800;9.216;2022-12-07T12:00:48;7.30;70.30
610;DHT22;292;48.800;9.216;2022-12-07T12:03:23;7.30;70.50
610;DHT22;292;48.800;9.216;2022-12-07T12:05:55;7.20;70.50
610;DHT22;292;48.800;9.216;2022-12-07T12:08:27;7.20;71.10
610;DHT22;292;48.800;9.216;2022-12-07T12:11:02;7.20;71.10
610;DHT22;292;48.800;9.216;2022-12-07T12:14:03;7.10;71.20
610;DHT22;292;48.800;9.216;2022-12-07T12:17:15;7.10;71.30
610;DHT22;292;48.800;9.216;2022-12-07T12:19:59;7.00;71.80
610;DHT22;292;48.800;9.216;2022-12-07T12:22:33;7.00;71.90
610;DHT22;292;48.800;9.216;2022-12-07T12:25:04;7.00;71.80
610;DHT22;292;48.800;9.216;2022-12-07T12:27:33;7.00;72.10
610;DHT22;292;48.800;9.216;2022-12-07T12:30:03;6.90;72.10
610;DHT22;292;48.800;9.216;2022-12-07T12:32:36;6.90;72.40
610;DHT22;292;48.800;9.216;2022-12-07T12:35:28;6.90;72.50
610;DHT22;292;48.800;9.216;2022-12-07T12:38:26;6.90;72.40
610;DHT22;292;48.800;9.216;2022-12-07T12:40:54;6.90;72.40
610;DHT22;292;48.800;9.216;2022-12-07T12:43:44;6.80;72.50
610;DHT22;292;48.800;9.216;2022-12-07T12:46:37;6.80;72.50
610;DHT22;292;48.800;9.216;2022-12-07T12:58:43;6.80;72.60
610;DHT22;292;48.800;9.216;2022-12-07T13:01:44;6.80;72.60
610;DHT22;292;48.800;9.216;2022-12-07T13:07:52;6.90;72.40
610;DHT22;292;48.800;9.216;2022-12-07T13:10:25;6.90;72.20
610;DHT22;292;48.800;9.216;2022-12-07T13:12:56;6.90;72.20
610;DHT22;292;48.800;9.216;2022-12-07T13:15:36;6.90;72.10
610;DHT22;292;48.800;9.216;2022-12-07T13:18:25;6.90;72.20
610;DHT22;292;48.800;9.216;2022-12-07T13:20:55;6.90;72.20
610;DHT22;292;48.800;9.216;2022-12-07T13:23:29;6.90;72.20
610;DHT22;292;48.800;9.216;2022-12-07T13:26:16;6.90;72.20
610;DHT22;292;48.800;9.216;2022-12-07T13:28:46;6.90;72.20
610;DHT22;292;48.800;9.216;2022-12-07T13:31:19;6.90;72.40
610;DHT22;292;48.800;9.216;2022-12-07T13:33:50;6.90;72.40
610;DHT22;292;48.800;9.216;2022-12-07T13:36:22;6.90;72.20
610;DHT22;292;48.800;9.216;2022-12-07T13:38:55;7.00;72.40
610;DHT22;292;48.800;9.216;2022-12-07T13:41:27;7.10;72.10
610;DHT22;292;48.800;9.216;2022-12-07T13:44:02;7.10;71.90
610;DHT22;292;48.800;9.216;2022-12-07T13:46:40;7.20;71.90
610;DHT22;292;48.800;9.216;2022-12-07T13:49:18;7.20;71.90
610;DHT22;292;48.800;9.216;2022-12-07T13:51:47;7.20;71.60
610;DHT22;292;48.800;9.216;2022-12-07T13:54:14;7.10;71.80
610;DHT22;292;48.800;9.216;2022-12-07T13:56:49;7.10;71.60
610;DHT22;292;48.800;9.216;2022-12-07T13:59:18;7.00;71.80
610;DHT22;292;48.800;9.216;2022-12-07T14:01:48;7.00;71.80
610;DHT22;292;48.800;9.216;2022-12-07T14:04:28;7.00;71.80
610;DHT22;292;48.800;9.216;2022-12-07T14:06:56;7.10;71.80
610;DHT22;292;48.800;9.216;2022-12-07T14:09:25;7.10;71.60
610;DHT22;292;48.800;9.216;2022-12-07T14:11:55;7.10;71.50
610;DHT22;292;48.800;9.216;2022-12-07T14:14:26;7.20;71.60
610;DHT22;292;48.800;9.216;2022-12-07T14:17:00;7.20;71.60
610;DHT22;292;48.800;9.216;2022-12-07T14:19:46;7.20;71.60
610;DHT22;292;48.800;9.216;2022-12-07T14:22:29;7.20;71.60
610;DHT22;292;48.800;9.216;2022-12-07T14:25:25;7.30;71.50
610;DHT22;292;48.800;9.216;2022-12-07T14:27:55;7.30;71.50
610;DHT22;292;48.800;9.216;2022-12-07T14:30:25;7.30;71.30
610;DHT22;292;48.800;9.216;2022-12-07T14:32:55;7.40;71.30
610;DHT22;292;48.800;9.216;2022-12-07T14:35:23;7.30;71.20
610;DHT22;292;48.800;9.216;2022-12-07T14:37:51;7.30;71.30
610;DHT22;292;48.800;9.216;2022-12-07T14:40:19;7.40;71.20
610;DHT22;292;48.800;9.216;2022-12-07T14:42:48;7.40;71.20
610;DHT22;292;48.800;9.216;2022-12-07T14:45:20;7.40;71.20
610;DHT22;292;48.800;9.216;2022-12-07T14:47:47;7.40;71.20
610;DHT22;292;48.800;9.216;2022-12-07T14:50:16;7.40;71.10
610;DHT22;292;48.800;9.216;2022-12-07T14:52:46;7.30;71.10
610;DHT22;292;48.800;9.216;2022-12-07T14:55:24;7.30;71.10
610;DHT22;292;48.800;9.216;2022-12-07T14:57:51;7.30;71.10
610;DHT22;292;48.800;9.216;2022-12-07T15:00:22;7.20;70.80
610;DHT22;292;48.800;9.216;2022-12-07T15:02:49;7.10;70.80
610;DHT22;292;48.800;9.216;2022-12-07T15:05:17;7.10;70.90
610;DHT22;292;48.800;9.216;2022-12-07T15:07:45;7.10;71.10
610;DHT22;292;48.800;9.216;2022-12-07T15:10:16;7.10;71.10
610;DHT22;292;48.800;9.216;2022-12-07T15:12:43;7.10;71.20
610;DHT22;292;48.800;9.216;2022-12-07T15:15:12;7.10;71.10
610;DHT22;292;48.800;9.216;2022-12-07T15:17:40;7.10;71.10
610;DHT22;292;48.800;9.216;2022-12-07T15:20:11;7.00;71.30
610;DHT22;292;48.800;9.216;2022-12-07T15:22:38;7.00;71.50
610;DHT22;292;48.800;9.216;2022-12-07T15:25:06;7.00;71.60
610;DHT22;292;48.800;9.216;2022-12-07T15:27:33;7.10;71.60
610;DHT22;292;48.800;9.216;2022-12-07T15:30:00;7.10;71.60
610;DHT22;292;48.800;9.216;2022-12-07T15:32:28;7.10;71.80
610;DHT22;292;48.800;9.216;2022-12-07T15:34:57;7.10;71.60
610;DHT22;292;48.800;9.216;2022-12-07T15:37:24;7.00;71.80
610;DHT22;292;48.800;9.216;2022-12-07T15:39:52;6.90;71.90
610;DHT22;292;48.800;9.216;2022-12-07T15:42:19;6.80;71.90
610;DHT22;292;48.800;9.216;2022-12-07T15:44:46;6.80;72.20
610;DHT22;292;48.800;9.216;2022-12-07T15:47:30;6.80;72.40
610;DHT22;292;48.800;9.216;2022-12-07T15:49:59;6.80;72.40
610;DHT22;292;48.800;9.216;2022-12-07T15:52:26;6.70;72.60
610;DHT22;292;48.800;9.216;2022-12-07T15:54:53;6.70;72.90
610;DHT22;292;48.800;9.216;2022-12-07T15:57:20;6.60;73.10
610;DHT22;292;48.800;9.216;2022-12-07T15:59:48;6.60;73.40
610;DHT22;292;48.800;9.216;2022-12-07T16:02:15;6.50;73.50
610;DHT22;292;48.800;9.216;2022-12-07T16:04:42;6.50;73.70
610;DHT22;292;48.800;9.216;2022-12-07T16:07:11;6.50;73.80
610;DHT22;292;48.800;9.216;2022-12-07T16:09:41;6.60;73.50
610;DHT22;292;48.800;9.216;2022-12-07T16:12:08;6.60;73.50
610;DHT22;292;48.800;9.216;2022-12-07T16:14:36;6.60;73.50
610;DHT22;292;48.800;9.216;2022-12-07T16:17:04;6.70;73.40
610;DHT22;292;48.800;9.216;2022-12-07T16:19:31;6.70;73.20
610;DHT22;292;48.800;9.216;2022-12-07T16:22:01;6.70;73.10
610;DHT22;292;48.800;9.216;2022-12-07T16:24:30;6.70;72.90
610;DHT22;292;48.800;9.216;2022-12-07T16:26:57;6.80;72.80
610;DHT22;292;48.800;9.216;2022-12-07T16:29:25;6.70;72.80
610;DHT22;292;48.800;9.216;2022-12-07T16:31:52;6.70;72.60
610;DHT22;292;48.800;9.216;2022-12-07T16:34:19;6.60;72.80
610;DHT22;292;48.800;9.216;2022-12-07T16:36:46;6.50;72.60
610;DHT22;292;48.800;9.216;2022-12-07T16:39:14;6.50;73.10
610;DHT22;292;48.800;9.216;2022-12-07T16:41:43;6.50;72.90
610;DHT22;292;48.800;9.216;2022-12-07T16:44:11;6.50;73.10
610;DHT22;292;48.800;9.216;2022-12-07T16:46:39;6.50;73.10
610;DHT22;292;48.800;9.216;2022-12-07T16:49:08;6.50;73.10
610;DHT22;292;48.800;9.216;2022-12-07T16:51:37;6.50;72.90
610;DHT22;292;48.800;9.216;2022-12-07T16:54:05;6.50;73.10
610;DHT22;292;48.800;9.216;2022-12-07T16:56:32;6.50;73.10
610;DHT22;292;48.800;9.216;2022-12-07T16:59:01;6.50;72.90
610;DHT22;292;48.800;9.216;2022-12-07T17:01:29;6.50;72.50
610;DHT22;292;48.800;9.216;2022-12-07T17:03:57;6.50;72.90
610;DHT22;292;48.800;9.216;2022-12-07T17:06:26;6.50;72.60
610;DHT22;292;48.800;9.216;2022-12-07T17:08:56;6.50;72.60
610;DHT22;292;48.800;9.216;2022-12-07T17:11:25;6.50;72.60
610;DHT22;292;48.800;9.216;2022-12-07T17:13:52;6.60;72.50
610;DHT22;292;48.800;9.216;2022-12-07T17:16:38;6.60;72.40
610;DHT22;292;48.800;9.216;2022-12-07T17:19:13;6.60;72.40
610;DHT22;292;48.800;9.216;2022-12-07T17:21:41;6.60;72.20
610;DHT22;292;48.800;9.216;2022-12-07T17:24:10;6.60;72.10
610;DHT22;292;48.800;9.216;2022-12-07T17:26:37;6.60;71.90
610;DHT22;292;48.800;9.216;2022-12-07T17:29:06;6.50;71.90
610;DHT22;292;48.800;9.216;2022-12-07T17:31:35;6.60;71.80
610;DHT22;292;48.800;9.216;2022-12-07T17:34:04;6.60;71.60
610;DHT22;292;48.800;9.216;2022-12-07T17:36:31;6.60;71.50
610;DHT22;292;48.800;9.216;2022-12-07T17:38:58;6.60;71.50